Time;durP1;ratioP1;P1;durP2;ratioP2;P2;SDS_P1;SDS_P2;PMS_P1;PMS_P2;Temp;Humidity;BMP_temperature;BMP_pressure;BME280_temperature;BME280_humidity;BME280_pressure;Samples;Min_cycle;Max_cycle;Signal;HPM_P1;HPM_P2
2022/12/09 00:01:09;;;;;;;17.77;11.33;;;;;;;11.12;75.79;94511.69;5009505;28;20192;-48
2022/12/09 00:03:36;;;;;;;14.00;10.20;;;;;;;11.11;75.72;94489.63;5008982;28;20627;-47
2022/12/09 00:06:07;;;;;;;13.87;10.90;;;;;;;11.11;75.96;94512.66;5009162;28;20223;-47
2022/12/09 00:08:34;;;;;;;14.33;9.97;;;;;;;11.11;75.84;94512.66;5009502;28;20254;-47
2022/12/09 00:11:00;;;;;;;15.93;10.13;;;;;;;11.08;75.79;94491.66;5009250;28;20216;-47
2022/12/09 00:13:28;;;;;;;13.50;9.87;;;;;;;11.10;75.64;94517.91;5009233;28;21331;-47
2022/12/09 00:15:55;;;;;;;13.67;10.43;;;;;;;11.10;75.70;94511.03;5009163;28;20640;-47
2022/12/09 00:18:23;;;;;;;14.13;9.50;;;;;;;11.09;75.78;94503.50;5009238;28;20641;-47
2022/12/09 00:20:50;;;;;;;13.60;9.90;;;;;;;11.07;75.83;94508.75;5009252;28;20189;-47
2022/12/09 00:23:17;;;;;;;14.93;10.10;;;;;;;11.02;75.78;94501.53;5009174;28;20185;-48
2022/12/09 00:25:43;;;;;;;13.23;9.37;;;;;;;11.11;75.69;94512.66;5009399;28;20200;-47
2022/12/09 00:28:10;;;;;;;13.97;10.53;;;;;;;11.13;75.81;94520.16;5008926;28;20626;-47
2022/12/09 00:30:37;;;;;;;13.97;10.10;;;;;;;11.14;75.67;94514.09;5009240;28;20203;-49
2022/12/09 00:33:04;;;;;;;11.97;9.33;;;;;;;11.11;75.65;94506.72;5009321;28;20232;-47
2022/12/09 00:35:32;;;;;;;15.37;10.57;;;;;;;11.08;75.92;94500.13;5008981;28;20727;-48
2022/12/09 00:37:59;;;;;;;12.67;9.43;;;;;;;11.16;75.81;94515.56;5009200;28;20196;-48
2022/12/09 00:40:25;;;;;;;13.73;9.63;;;;;;;11.18;75.70;94525.66;5009504;28;20188;-48
2022/12/09 00:42:52;;;;;;;10.07;9.00;;;;;;;11.20;75.60;94527.13;5008754;28;20242;-49
2022/12/09 00:45:19;;;;;;;16.40;9.33;;;;;;;11.20;75.66;94511.78;5008951;28;20185;-48
2022/12/09 00:47:46;;;;;;;13.27;10.03;;;;;;;11.11;75.69;94514.41;5009198;28;20219;-48
2022/12/09 00:50:12;;;;;;;15.03;10.33;;;;;;;11.21;75.97;94523.59;5009105;28;20278;-48
2022/12/09 00:52:40;;;;;;;15.20;9.80;;;;;;;11.20;75.79;94519.44;5008677;28;20208;-48
2022/12/09 00:55:08;;;;;;;14.57;9.93;;;;;;;11.21;75.68;94510.00;5009074;28;20192;-49
2022/12/09 00:57:35;;;;;;;14.73;9.97;;;;;;;11.26;75.85;94523.16;5008300;28;20336;-48
2022/12/09 01:00:01;;;;;;;13.70;9.90;;;;;;;11.26;75.76;94506.06;5008685;28;20835;-48
2022/12/09 01:02:28;;;;;;;11.00;9.33;;;;;;;11.27;75.95;94515.38;5008639;28;20204;-48
2022/12/09 01:04:55;;;;;;;16.07;9.70;;;;;;;11.27;75.91;94517.13;5008727;28;20192;-48
2022/12/09 01:07:22;;;;;;;13.77;9.87;;;;;;;11.27;75.66;94486.41;5008891;28;20200;-48
2022/12/09 01:09:50;;;;;;;14.40;9.10;;;;;;;11.28;75.86;94493.13;5008287;28;20203;-48
2022/12/09 01:12:17;;;;;;;13.07;9.77;;;;;;;11.23;75.70;94490.22;5008352;28;20334;-48
2022/12/09 01:14:43;;;;;;;12.63;9.90;;;;;;;11.28;76.15;94498.25;5008432;28;20192;-48
2022/12/09 01:17:10;;;;;;;12.00;8.97;;;;;;;11.28;75.88;94499.06;5008761;28;20185;-48
2022/12/09 01:19:39;;;;;;;13.93;9.77;;;;;;;11.16;75.80;94468.69;5008772;28;20200;-48
2022/12/09 01:22:06;;;;;;;13.50;10.17;;;;;;;11.22;76.04;94480.91;5010111;28;20644;-48
2022/12/09 01:24:32;;;;;;;12.27;9.17;;;;;;;11.30;75.92;94496.34;5011950;28;20265;-47
2022/12/09 01:27:00;;;;;;;12.97;10.07;;;;;;;11.30;76.00;94504.00;5011922;28;20266;-48
2022/12/09 01:29:27;;;;;;;15.17;10.63;;;;;;;11.29;76.02;94512.66;5012177;28;20615;-47
2022/12/09 01:31:54;;;;;;;16.90;9.80;;;;;;;11.29;75.94;94512.66;5012023;28;20235;-47
2022/12/09 01:34:21;;;;;;;14.67;10.03;;;;;;;11.25;75.85;94506.22;5011155;28;20656;-47
2022/12/09 01:36:48;;;;;;;16.03;10.50;;;;;;;11.28;75.97;94516.97;5012170;28;20184;-50
2022/12/09 01:39:16;;;;;;;13.73;9.80;;;;;;;11.29;76.02;94504.97;5011664;28;20203;-48
2022/12/09 01:41:44;;;;;;;13.40;9.90;;;;;;;11.28;75.99;94499.06;5012005;28;20216;-49
2022/12/09 01:44:16;;;;;;;13.23;10.00;;;;;;;11.28;75.94;94495.69;5011340;28;20206;-47
2022/12/09 01:46:43;;;;;;;17.23;9.67;;;;;;;11.25;76.00;94501.88;5012008;28;20185;-48
2022/12/09 01:49:14;;;;;;;13.63;10.50;;;;;;;11.26;76.21;94498.38;5011760;28;20195;-47
2022/12/09 01:51:43;;;;;;;15.47;10.63;;;;;;;11.25;76.15;94501.09;5011750;28;20212;-47
2022/12/09 01:54:10;;;;;;;12.43;9.83;;;;;;;11.24;76.10;94489.25;5011854;28;20199;-48
2022/12/09 01:56:39;;;;;;;15.00;9.87;;;;;;;11.24;76.15;94507.16;5010931;28;20220;-48
2022/12/09 01:59:09;;;;;;;12.73;9.87;;;;;;;11.19;76.08;94501.69;5011159;28;20200;-47
2022/12/09 02:01:38;;;;;;;16.70;10.97;;;;;;;11.20;76.45;94496.41;5011118;28;20286;-47
2022/12/09 02:04:06;;;;;;;12.87;10.13;;;;;;;11.19;76.15;94499.13;5011328;28;20247;-47
2022/12/09 02:06:35;;;;;;;13.37;10.40;;;;;;;10.97;76.12;94459.44;5011104;28;20192;-47
2022/12/09 02:09:01;;;;;;;17.27;10.60;;;;;;;11.20;76.40;94495.63;5011303;28;20617;-49
2022/12/09 02:11:43;;;;;;;16.27;10.03;;;;;;;11.19;76.25;94489.69;5010510;28;20224;-48
2022/12/09 02:14:18;;;;;;;12.73;9.93;;;;;;;11.18;76.26;94488.09;5011328;28;20309;-47
2022/12/09 02:16:56;;;;;;;14.40;10.47;;;;;;;11.19;76.30;94483.78;5011059;28;20191;-47
2022/12/09 02:19:38;;;;;;;14.10;10.40;;;;;;;11.16;76.03;94478.94;5010909;28;20204;-47
2022/12/09 02:22:07;;;;;;;12.83;10.30;;;;;;;11.15;76.14;94467.91;5011274;28;20188;-48
2022/12/09 02:24:41;;;;;;;14.70;10.23;;;;;;;11.17;76.27;94478.78;5010993;28;20196;-47
2022/12/09 02:27:16;;;;;;;12.73;10.07;;;;;;;11.18;76.46;94487.25;4991449;28;20250;-47
2022/12/09 02:29:57;;;;;;;16.80;11.07;;;;;;;11.17;76.37;94473.66;4991265;28;20181;-48
2022/12/09 02:32:47;;;;;;;17.50;11.27;;;;;;;11.05;76.20;94449.25;4991109;28;20851;-48
2022/12/09 02:35:22;;;;;;;16.50;10.63;;;;;;;11.18;76.07;94484.69;4991290;28;20648;-47
2022/12/09 02:37:54;;;;;;;14.30;10.03;;;;;;;11.16;76.40;94474.63;5005749;28;20192;-47
2022/12/09 02:40:28;;;;;;;11.90;9.80;;;;;;;11.17;76.20;94481.34;5010882;28;20196;-48
2022/12/09 02:42:56;;;;;;;16.43;10.97;;;;;;;11.17;76.48;94491.56;5010622;28;20204;-47
2022/12/09 02:45:27;;;;;;;16.63;10.43;;;;;;;10.40;76.32;94377.81;5010870;28;20189;-48
2022/12/09 02:47:55;;;;;;;14.00;9.70;;;;;;;11.11;76.25;94493.94;5010090;28;20199;-49
2022/12/09 02:50:27;;;;;;;14.70;10.73;;;;;;;11.19;76.32;94510.16;5010716;28;20193;-48
2022/12/09 02:52:56;;;;;;;15.57;10.60;;;;;;;10.98;76.32;94476.38;5010642;28;20347;-49
2022/12/09 02:55:23;;;;;;;18.70;10.60;;;;;;;11.21;76.20;94512.56;5010101;28;20185;-48
2022/12/09 02:57:56;;;;;;;14.57;10.77;;;;;;;11.21;76.56;94507.44;5010186;28;20260;-48
2022/12/09 03:00:23;;;;;;;14.73;10.63;;;;;;;11.16;76.09;94492.53;5010453;28;20188;-48
2022/12/09 03:02:53;;;;;;;14.63;10.07;;;;;;;11.21;76.15;94495.47;5010472;28;20701;-48
2022/12/09 03:05:30;;;;;;;19.73;11.00;;;;;;;11.21;76.20;94498.00;5010436;28;20207;-48
2022/12/09 03:08:06;;;;;;;16.03;11.33;;;;;;;11.22;76.18;94504.72;5010379;28;20188;-48
2022/12/09 03:10:39;;;;;;;15.07;10.47;;;;;;;11.20;76.18;94509.22;5010089;28;20192;-48
2022/12/09 03:13:12;;;;;;;15.80;10.57;;;;;;;11.24;76.21;94509.72;5010149;28;20603;-48
2022/12/09 03:15:45;;;;;;;16.63;11.03;;;;;;;11.23;76.31;94508.94;5010506;28;20194;-48
2022/12/09 03:18:15;;;;;;;14.07;10.77;;;;;;;11.22;76.22;94503.94;5009854;28;20555;-48
2022/12/09 03:20:46;;;;;;;17.93;11.50;;;;;;;11.23;76.33;94500.44;5009523;28;20204;-48
2022/12/09 03:23:16;;;;;;;14.00;9.83;;;;;;;11.23;76.32;94495.31;5009731;28;20566;-47
2022/12/09 03:25:46;;;;;;;14.03;10.80;;;;;;;11.19;76.37;94494.00;5010404;28;20262;-48
2022/12/09 03:28:17;;;;;;;15.43;10.33;;;;;;;11.25;76.30;94495.97;5009722;28;20196;-48
2022/12/09 03:30:45;;;;;;;15.47;10.10;;;;;;;11.22;76.24;94499.63;5009719;28;20188;-48
2022/12/09 03:33:14;;;;;;;13.10;9.43;;;;;;;11.23;76.26;94475.66;5009594;28;20715;-48
2022/12/09 03:35:46;;;;;;;14.90;10.03;;;;;;;11.24;76.13;94468.78;5009785;28;20730;-48
2022/12/09 03:38:17;;;;;;;15.30;10.57;;;;;;;11.24;76.26;94497.72;5009481;28;20267;-47
2022/12/09 03:40:46;;;;;;;14.10;10.40;;;;;;;11.24;76.21;94476.44;5009527;28;20188;-47
2022/12/09 03:43:16;;;;;;;13.40;9.57;;;;;;;11.24;76.34;94481.56;5009670;28;20219;-47
2022/12/09 03:45:43;;;;;;;15.67;10.70;;;;;;;11.24;76.20;94484.13;5008954;28;20180;-48
2022/12/09 03:48:11;;;;;;;13.77;9.20;;;;;;;11.23;76.36;94480.78;5009377;28;20204;-48
2022/12/09 03:50:44;;;;;;;15.60;10.30;;;;;;;11.22;76.32;94476.59;5009642;28;20718;-49
2022/12/09 03:53:16;;;;;;;14.60;10.90;;;;;;;11.22;76.51;94480.91;5008890;28;20572;-49
2022/12/09 03:55:51;;;;;;;14.73;9.43;;;;;;;11.22;76.45;94480.91;5009569;28;20239;-48
2022/12/09 03:58:18;;;;;;;13.23;10.13;;;;;;;11.18;76.43;94482.97;5009766;28;20188;-47
2022/12/09 04:00:47;;;;;;;13.70;8.97;;;;;;;11.20;76.58;94475.94;5009706;28;20184;-47
2022/12/09 04:03:14;;;;;;;14.37;9.80;;;;;;;11.20;76.44;94491.28;5009267;28;20201;-47
2022/12/09 04:05:42;;;;;;;15.40;10.17;;;;;;;11.18;76.24;94492.38;5008984;28;20201;-47
2022/12/09 04:08:10;;;;;;;13.17;9.37;;;;;;;11.21;76.44;94497.22;5009263;28;20276;-50
2022/12/09 04:10:38;;;;;;;14.83;10.07;;;;;;;11.22;76.42;94486.03;5009698;28;20188;-47
2022/12/09 04:13:05;;;;;;;14.33;10.13;;;;;;;11.22;76.54;94483.47;5008784;28;20246;-47
2022/12/09 04:15:31;;;;;;;16.67;9.30;;;;;;;11.22;76.30;94481.69;5008863;28;20188;-47
2022/12/09 04:17:58;;;;;;;13.03;9.30;;;;;;;11.22;76.63;94483.47;5009351;28;20197;-49
2022/12/09 04:20:25;;;;;;;13.70;9.87;;;;;;;11.22;76.50;94494.50;5009187;28;20204;-48
2022/12/09 04:22:52;;;;;;;13.23;9.67;;;;;;;11.22;76.36;94486.81;5009383;28;20664;-48
2022/12/09 04:25:18;;;;;;;13.80;9.70;;;;;;;11.22;76.36;94497.06;5008416;28;20187;-48
2022/12/09 04:27:47;;;;;;;14.33;9.77;;;;;;;11.23;76.35;94501.25;5009245;28;20200;-49
2022/12/09 04:30:14;;;;;;;12.63;9.07;;;;;;;11.23;76.21;94498.69;5009017;28;20196;-47
2022/12/09 04:32:40;;;;;;;14.97;10.03;;;;;;;11.20;76.48;94493.84;5009372;28;20235;-49
2022/12/09 04:35:08;;;;;;;13.87;9.80;;;;;;;11.24;76.54;94507.16;5008700;28;20200;-47
2022/12/09 04:37:36;;;;;;;14.77;9.60;;;;;;;11.24;76.57;94491.81;5009344;28;20239;-47
2022/12/09 04:40:03;;;;;;;14.33;10.33;;;;;;;11.05;76.52;94473.09;5009097;28;20184;-50
2022/12/09 04:42:30;;;;;;;13.03;10.03;;;;;;;11.18;76.46;94500.06;5010166;28;20185;-48
2022/12/09 04:44:58;;;;;;;13.40;10.13;;;;;;;11.23;76.38;94495.31;5009043;28;20196;-47
2022/12/09 04:47:25;;;;;;;14.17;9.97;;;;;;;11.24;76.56;94468.78;5008697;28;20695;-49
2022/12/09 04:49:52;;;;;;;14.70;10.17;;;;;;;11.21;76.48;94495.47;5009148;28;20196;-48
2022/12/09 04:52:19;;;;;;;14.23;10.00;;;;;;;11.19;76.48;94483.78;5008479;28;20219;-47
2022/12/09 04:54:46;;;;;;;14.60;10.10;;;;;;;11.23;76.47;94503.00;5009281;28;20243;-49
2022/12/09 04:57:13;;;;;;;14.13;9.40;;;;;;;11.22;76.66;94514.16;5010035;28;20701;-50
2022/12/09 04:59:40;;;;;;;12.63;9.50;;;;;;;11.16;76.41;94491.75;5012315;28;20188;-47
2022/12/09 05:02:08;;;;;;;11.60;9.50;;;;;;;11.23;76.52;94506.38;5012380;28;20208;-48
2022/12/09 05:04:35;;;;;;;13.73;9.60;;;;;;;11.22;76.43;94499.63;5012949;28;20207;-47
2022/12/09 05:07:01;;;;;;;15.30;9.87;;;;;;;11.25;76.31;94511.34;5012469;28;20196;-47
2022/12/09 05:09:31;;;;;;;13.10;9.83;;;;;;;11.26;76.45;94506.06;5013173;28;20201;-48
2022/12/09 05:11:59;;;;;;;15.37;9.77;;;;;;;10.71;76.45;94405.63;5012410;28;20653;-49
2022/12/09 05:14:26;;;;;;;12.63;9.93;;;;;;;11.27;76.56;94501.75;5012776;28;20327;-50
2022/12/09 05:16:53;;;;;;;12.57;8.77;;;;;;;11.23;76.59;94490.22;5012432;28;20664;-48
2022/12/09 05:19:21;;;;;;;13.20;9.43;;;;;;;11.27;76.64;94499.22;5011662;28;20204;-47
2022/12/09 05:21:48;;;;;;;11.73;9.47;;;;;;;11.27;76.56;94497.44;5011683;28;20664;-47
2022/12/09 05:24:14;;;;;;;14.20;9.47;;;;;;;11.27;76.60;94502.56;5012010;28;20215;-48
2022/12/09 05:26:41;;;;;;;14.13;10.33;;;;;;;11.26;76.61;94500.13;5012217;28;20196;-47
2022/12/09 05:29:08;;;;;;;14.07;10.00;;;;;;;11.25;76.42;94501.09;5011922;28;20535;-48
2022/12/09 05:31:35;;;;;;;14.67;10.13;;;;;;;11.24;76.72;94490.06;5012144;28;20652;-48
2022/12/09 05:34:02;;;;;;;13.47;10.03;;;;;;;11.23;76.72;94493.56;5011783;28;20512;-48
2022/12/09 05:36:30;;;;;;;13.97;9.63;;;;;;;11.23;76.54;94508.94;5011932;28;20204;-48
2022/12/09 05:38:57;;;;;;;12.10;9.90;;;;;;;11.23;76.54;94508.13;5011292;28;20189;-48
2022/12/09 05:41:24;;;;;;;12.53;9.73;;;;;;;11.21;76.73;94520.25;5011523;28;20247;-48
2022/12/09 05:43:51;;;;;;;14.57;10.20;;;;;;;11.23;76.60;94526.84;5011655;28;20319;-48
2022/12/09 05:46:18;;;;;;;22.47;9.63;;;;;;;11.02;77.12;94478.50;5012007;28;20610;-47
2022/12/09 05:48:45;;;;;;;8.77;6.33;;;;;;;11.61;100.00;94519.78;5012185;28;20303;-46
2022/12/09 05:51:15;;;;;;;10.53;6.53;;;;;;;12.11;100.00;94511.53;5011148;28;20189;-49
2022/12/09 05:53:44;;;;;;;7.40;5.33;;;;;;;12.62;100.00;94512.41;5011263;28;20661;-48
2022/12/09 05:56:15;;;;;;;10.03;6.60;;;;;;;13.10;100.00;94505.81;5011318;28;20220;-46
2022/12/09 05:58:42;;;;;;;11.03;7.53;;;;;;;13.49;100.00;94507.84;5011784;28;20283;-46
2022/12/09 06:01:09;;;;;;;17.43;9.23;;;;;;;13.77;100.00;94503.16;5011888;28;20188;-47
2022/12/09 06:03:36;;;;;;;13.23;7.60;;;;;;;14.01;100.00;94504.91;5011440;28;20203;-49
2022/12/09 06:06:05;;;;;;;13.30;7.30;;;;;;;14.25;100.00;94512.59;5011939;28;20192;-48
2022/12/09 06:08:32;;;;;;;13.13;8.87;;;;;;;14.26;100.00;94509.03;5010914;28;20648;-48
2022/12/09 06:11:01;;;;;;;10.57;8.13;;;;;;;14.22;100.00;94520.63;5011655;28;20184;-49
2022/12/09 06:13:28;;;;;;;10.80;8.23;;;;;;;14.13;99.02;94516.47;5011699;28;20216;-50
2022/12/09 06:16:02;;;;;;;12.60;9.43;;;;;;;14.03;96.92;94518.41;5010892;28;20197;-47
2022/12/09 06:18:29;;;;;;;12.07;9.10;;;;;;;13.94;94.89;94527.88;5010790;28;20625;-49
2022/12/09 06:20:56;;;;;;;12.87;9.20;;;;;;;13.83;93.54;94538.50;5002953;28;20200;-48
2022/12/09 06:23:22;;;;;;;11.60;8.37;;;;;;;13.73;92.05;94536.13;5009689;28;20707;-48
2022/12/09 06:25:49;;;;;;;10.83;8.07;;;;;;;13.63;91.22;94520.03;4998164;28;20218;-48
2022/12/09 06:28:18;;;;;;;14.40;8.97;;;;;;;13.55;90.39;94528.53;5001225;28;20200;-48
2022/12/09 06:30:44;;;;;;;15.47;9.87;;;;;;;13.46;89.80;94537.19;5007885;28;20192;-48
2022/12/09 06:33:11;;;;;;;15.80;10.20;;;;;;;13.37;89.06;94532.22;5005610;28;20204;-46
2022/12/09 06:35:38;;;;;;;14.23;9.77;;;;;;;13.30;88.59;94530.28;4987735;28;20209;-48
2022/12/09 06:38:05;;;;;;;11.90;9.70;;;;;;;13.22;88.19;94535.41;4988202;28;20189;-47
2022/12/09 06:40:32;;;;;;;14.20;9.97;;;;;;;13.12;87.65;94519.28;4988158;28;20599;-48
2022/12/09 06:42:59;;;;;;;16.13;10.07;;;;;;;13.14;87.47;94550.78;4987941;28;20719;-47
2022/12/09 06:45:27;;;;;;;14.07;11.10;;;;;;;12.59;87.02;94476.81;5003477;28;20184;-47
2022/12/09 06:47:54;;;;;;;16.33;11.80;;;;;;;13.06;86.86;94566.94;4988564;28;20247;-47
2022/12/09 06:50:21;;;;;;;20.00;11.90;;;;;;;13.01;86.67;94546.06;4988735;28;20197;-49
2022/12/09 06:52:47;;;;;;;16.87;11.93;;;;;;;13.02;86.53;94547.69;4987651;28;20201;-48
2022/12/09 06:55:14;;;;;;;18.60;11.67;;;;;;;13.03;86.14;94569.81;5000203;28;20251;-46
2022/12/09 06:57:41;;;;;;;16.50;12.20;;;;;;;13.01;86.05;94552.97;5004459;28;20244;-47
2022/12/09 07:00:09;;;;;;;18.13;12.93;;;;;;;13.02;85.80;94563.09;5007446;28;20247;-50
2022/12/09 07:02:37;;;;;;;22.50;13.63;;;;;;;12.98;85.57;94550.72;5007507;28;20273;-48
2022/12/09 07:05:05;;;;;;;16.70;12.10;;;;;;;12.94;85.58;94544.28;5001015;28;20299;-50
2022/12/09 07:07:32;;;;;;;22.77;14.10;;;;;;;12.99;85.28;94558.25;4998437;28;20571;-47
2022/12/09 07:09:58;;;;;;;18.47;13.67;;;;;;;12.96;85.35;94550.88;4989205;28;20216;-48
2022/12/09 07:12:25;;;;;;;22.60;14.50;;;;;;;12.92;85.22;94546.22;4986760;28;20197;-48
2022/12/09 07:14:52;;;;;;;21.97;15.67;;;;;;;12.96;84.98;94545.75;5004340;28;20231;-48
2022/12/09 07:17:20;;;;;;;20.67;15.70;;;;;;;12.98;84.86;94559.22;4988704;28;20200;-47
2022/12/09 07:19:52;;;;;;;22.87;14.80;;;;;;;12.88;84.84;94527.75;4987488;28;20219;-47
2022/12/09 07:22:19;;;;;;;20.93;15.37;;;;;;;12.99;84.62;94558.25;5005919;28;20286;-48
2022/12/09 07:24:46;;;;;;;25.90;17.33;;;;;;;13.01;84.42;94547.84;5002672;28;20189;-47
2022/12/09 07:27:14;;;;;;;24.20;17.30;;;;;;;12.99;84.28;94553.13;4999547;28;20239;-48
2022/12/09 07:29:41;;;;;;;26.83;17.93;;;;;;;13.02;84.02;94563.09;5005894;28;20192;-48
2022/12/09 07:32:08;;;;;;;26.73;19.07;;;;;;;13.02;84.02;94555.38;5006824;28;20188;-48
2022/12/09 07:34:35;;;;;;;26.00;18.83;;;;;;;13.04;83.85;94565.50;5005798;28;20302;-48
2022/12/09 07:37:03;;;;;;;27.30;18.57;;;;;;;13.05;83.86;94552.50;5000206;28;20208;-48
2022/12/09 07:39:30;;;;;;;24.17;18.00;;;;;;;13.04;83.75;94562.94;5001330;28;20652;-48
2022/12/09 07:41:57;;;;;;;25.53;19.43;;;;;;;13.06;83.53;94554.09;5007386;28;20188;-47
2022/12/09 07:44:26;;;;;;;27.13;19.87;;;;;;;13.05;83.50;94557.63;4996825;28;20647;-48
2022/12/09 07:46:53;;;;;;;25.20;19.27;;;;;;;12.98;83.38;94543.00;4999138;28;20196;-48
2022/12/09 07:49:21;;;;;;;27.27;19.73;;;;;;;13.02;83.16;94542.53;5009099;28;20200;-48
2022/12/09 07:51:47;;;;;;;27.37;19.47;;;;;;;13.12;82.95;94554.44;4995331;28;20204;-48
2022/12/09 07:54:18;;;;;;;28.53;19.10;;;;;;;13.14;82.98;94555.09;4989220;28;20220;-48
2022/12/09 07:56:45;;;;;;;25.97;19.60;;;;;;;13.17;82.66;94536.78;4990359;28;20623;-50
2022/12/09 07:59:13;;;;;;;24.23;17.87;;;;;;;13.21;82.57;94535.53;4998422;28;20243;-47
2022/12/09 08:01:40;;;;;;;28.20;19.23;;;;;;;13.25;82.30;94552.25;5000336;28;20189;-48
2022/12/09 08:04:07;;;;;;;25.83;19.00;;;;;;;13.30;82.00;94555.19;4991999;28;20594;-48
2022/12/09 08:06:35;;;;;;;28.60;19.60;;;;;;;13.36;81.79;94548.59;5001260;28;20231;-49
2022/12/09 08:09:06;;;;;;;23.90;19.57;;;;;;;13.39;81.50;94540.59;4996664;28;20211;-49
2022/12/09 08:11:34;;;;;;;26.97;19.27;;;;;;;13.42;81.56;94553.09;5009081;28;20207;-47
2022/12/09 08:14:05;;;;;;;24.07;18.67;;;;;;;13.48;81.22;94549.91;4997654;28;20225;-47
2022/12/09 08:16:32;;;;;;;29.53;19.57;;;;;;;13.53;80.96;94555.38;4988814;28;20575;-49
2022/12/09 08:18:58;;;;;;;28.03;20.23;;;;;;;13.55;80.78;94559.38;4996125;28;20196;-49
2022/12/09 08:21:28;;;;;;;30.20;21.00;;;;;;;13.65;80.55;94572.09;4997214;28;20197;-48
2022/12/09 08:23:56;;;;;;;25.37;18.90;;;;;;;13.72;80.41;94577.38;4995299;28;20254;-49
2022/12/09 08:26:25;;;;;;;30.37;19.47;;;;;;;13.78;79.89;94577.56;5008490;28;20671;-49
2022/12/09 08:28:54;;;;;;;27.73;19.57;;;;;;;13.84;79.70;94570.97;4996812;28;20550;-48
2022/12/09 08:31:22;;;;;;;27.53;18.73;;;;;;;13.92;79.49;94568.38;4996718;28;20199;-47
2022/12/09 08:33:50;;;;;;;27.10;19.13;;;;;;;14.01;79.08;94562.28;5006681;28;20204;-48
2022/12/09 08:36:18;;;;;;;31.33;19.13;;;;;;;13.95;78.82;94523.56;5006565;28;20180;-47
2022/12/09 08:38:46;;;;;;;28.97;18.30;;;;;;;14.29;78.46;94557.59;5012102;28;20750;-47
2022/12/09 08:41:15;;;;;;;34.53;18.90;;;;;;;14.39;78.50;94559.19;5012338;28;20184;-48
2022/12/09 08:43:42;;;;;;;23.80;17.70;;;;;;;14.47;77.96;94543.72;5011585;28;20199;-48
2022/12/09 08:46:11;;;;;;;34.00;18.03;;;;;;;14.43;77.75;94524.44;5011985;28;20218;-47
2022/12/09 08:48:40;;;;;;;26.17;17.63;;;;;;;14.67;77.54;94547.53;5012184;28;20640;-48
2022/12/09 08:51:08;;;;;;;25.60;18.47;;;;;;;14.77;77.30;94540.44;4997827;28;20588;-47
2022/12/09 08:53:35;;;;;;;21.70;16.53;;;;;;;14.87;76.92;94539.44;5011784;28;20224;-48
2022/12/09 08:56:08;;;;;;;22.87;16.00;;;;;;;14.95;76.59;94517.03;5001398;28;20714;-47
2022/12/09 08:58:35;;;;;;;28.93;17.70;;;;;;;15.11;76.39;94525.63;5007084;28;20227;-49
2022/12/09 09:01:01;;;;;;;25.13;17.33;;;;;;;15.22;76.27;94509.78;5008297;28;20262;-48
2022/12/09 09:03:30;;;;;;;23.60;17.30;;;;;;;15.35;75.73;94498.91;5012175;28;20204;-47
2022/12/09 09:06:01;;;;;;;28.80;17.40;;;;;;;15.41;75.51;94490.50;5003638;28;20192;-47
2022/12/09 09:08:28;;;;;;;24.17;17.47;;;;;;;15.59;75.15;94495.34;5003988;28;20228;-47
2022/12/09 09:10:55;;;;;;;23.23;17.37;;;;;;;15.70;74.80;94497.56;5008668;28;20632;-47
2022/12/09 09:13:22;;;;;;;25.77;17.27;;;;;;;15.78;74.72;94490.56;4997449;28;20187;-47
2022/12/09 09:15:49;;;;;;;25.77;16.70;;;;;;;15.81;74.64;94481.69;5004150;28;20710;-47
2022/12/09 09:18:16;;;;;;;24.43;16.13;;;;;;;15.89;74.46;94488.53;4994306;28;20196;-49
2022/12/09 09:20:47;;;;;;;22.20;17.27;;;;;;;15.91;74.29;94489.97;5003791;28;20291;-46
2022/12/09 09:23:14;;;;;;;26.33;18.83;;;;;;;15.75;74.31;94452.22;5001249;28;20200;-49
2022/12/09 09:25:41;;;;;;;28.97;18.30;;;;;;;15.98;74.11;94479.75;5002606;28;20196;-47
2022/12/09 09:28:08;;;;;;;29.80;18.63;;;;;;;16.00;74.09;94483.75;5011917;28;20196;-47
2022/12/09 09:30:35;;;;;;;28.63;16.83;;;;;;;16.05;73.94;94471.13;5011766;28;20196;-47
2022/12/09 09:33:02;;;;;;;22.30;16.43;;;;;;;16.11;73.55;94459.31;4996739;28;20212;-48
2022/12/09 09:35:29;;;;;;;26.13;17.67;;;;;;;16.20;73.30;94457.44;4992298;28;20220;-47
2022/12/09 09:37:58;;;;;;;27.27;17.63;;;;;;;16.27;73.05;94451.38;4992817;28;20199;-47
2022/12/09 09:40:26;;;;;;;24.80;16.67;;;;;;;16.36;72.81;94452.09;4992026;28;20197;-48
2022/12/09 09:42:56;;;;;;;23.40;16.97;;;;;;;16.36;72.58;94434.00;5008988;28;20195;-48
2022/12/09 09:45:24;;;;;;;25.90;16.20;;;;;;;16.45;72.48;94432.97;5001889;28;20201;-48
2022/12/09 09:47:55;;;;;;;28.37;17.03;;;;;;;16.57;72.29;94435.88;5007070;28;20214;-48
2022/12/09 09:50:29;;;;;;;24.37;17.33;;;;;;;16.66;72.10;94439.94;5011251;28;20204;-48
2022/12/09 09:53:00;;;;;;;26.20;16.50;;;;;;;16.77;71.76;94447.25;4999927;28;20227;-47
2022/12/09 09:55:35;;;;;;;21.13;15.33;;;;;;;16.88;71.39;94440.00;5005433;28;20216;-49
2022/12/09 09:58:12;;;;;;;24.30;15.83;;;;;;;16.80;71.20;94391.88;5003739;28;20192;-48
2022/12/09 10:00:47;;;;;;;22.60;15.63;;;;;;;17.07;70.99;94410.22;4991282;28;20200;-46
2022/12/09 10:03:25;;;;;;;25.57;16.17;;;;;;;17.14;70.81;94416.22;5006652;28;20588;-47
2022/12/09 10:05:55;;;;;;;25.73;14.83;;;;;;;17.14;70.74;94400.72;5011334;28;20188;-47
2022/12/09 10:08:32;;;;;;;29.00;15.73;;;;;;;17.08;70.63;94384.19;5001543;28;20683;-47
2022/12/09 10:11:11;;;;;;;22.50;15.80;;;;;;;17.12;70.65;94384.63;5005934;28;20614;-47
2022/12/09 10:13:46;;;;;;;24.47;15.40;;;;;;;17.08;70.70;94394.53;5007942;28;20204;-47
2022/12/09 10:16:18;;;;;;;26.00;16.10;;;;;;;17.07;70.74;94387.75;5006881;28;20199;-47
2022/12/09 10:19:00;;;;;;;27.07;16.07;;;;;;;17.05;70.55;94393.13;5010883;28;20193;-47
2022/12/09 10:21:29;;;;;;;28.90;16.63;;;;;;;17.04;70.68;94382.94;4998365;28;20201;-47
2022/12/09 10:24:02;;;;;;;23.67;15.93;;;;;;;17.03;70.47;94383.94;4991256;28;20628;-47
2022/12/09 10:26:31;;;;;;;22.80;16.17;;;;;;;17.03;70.46;94381.38;4998190;28;20200;-47
2022/12/09 10:29:07;;;;;;;31.27;15.07;;;;;;;17.03;70.28;94363.28;5010344;28;20205;-47
2022/12/09 10:31:34;;;;;;;24.60;15.57;;;;;;;17.01;70.32;94360.88;5010377;28;20188;-47
2022/12/09 10:34:00;;;;;;;25.80;15.50;;;;;;;17.02;70.33;94364.28;5010617;28;20208;-47
2022/12/09 10:36:30;;;;;;;31.23;15.83;;;;;;;17.05;70.03;94333.69;4997548;28;20218;-48
2022/12/09 10:38:59;;;;;;;30.13;16.13;;;;;;;17.04;70.14;94344.19;5003833;28;20668;-49
2022/12/09 10:44:26;;;;;;;28.90;15.43;;;;;;;17.08;69.95;94344.63;5010160;28;20575;-49
2022/12/09 10:46:59;;;;;;;30.70;15.93;;;;;;;17.10;69.88;94350.41;5002921;28;20196;-47
2022/12/09 10:49:26;;;;;;;27.47;16.57;;;;;;;17.10;69.93;94358.16;5010203;28;20867;-47
2022/12/09 10:51:54;;;;;;;27.00;15.47;;;;;;;17.09;69.78;94330.72;5006516;28;20695;-47
2022/12/09 10:54:34;;;;;;;24.70;16.13;;;;;;;17.10;69.65;94342.66;4998277;28;20255;-48
2022/12/09 10:57:22;;;;;;;30.17;15.73;;;;;;;17.07;69.80;94332.72;5008469;28;20270;-48
2022/12/09 11:00:00;;;;;;;30.57;15.50;;;;;;;17.05;69.54;94336.28;5008320;28;20197;-50
2022/12/09 11:02:28;;;;;;;26.93;15.57;;;;;;;17.05;69.63;94332.88;5004235;28;20196;-48
2022/12/09 11:04:55;;;;;;;7.33;6.07;;;;;;;17.21;79.45;94331.81;4993001;28;20185;-48
2022/12/09 11:07:24;;;;;;;11.37;6.17;;;;;;;17.50;81.89;94331.63;4990422;28;20328;-48
2022/12/09 11:10:06;;;;;;;10.17;6.40;;;;;;;17.90;83.59;94326.72;5006449;28;20309;-47
2022/12/09 11:12:37;;;;;;;9.83;5.70;;;;;;;18.24;83.04;94314.72;4995305;28;20193;-49
2022/12/09 11:15:07;;;;;;;9.47;5.90;;;;;;;18.54;81.88;94312.63;4989848;28;20743;-47
2022/12/09 11:17:37;;;;;;;7.30;5.73;;;;;;;18.79;81.04;94316.28;4997734;28;20196;-46
2022/12/09 11:20:17;;;;;;;14.00;6.70;;;;;;;19.07;81.19;94328.25;4997115;28;20181;-48
2022/12/09 11:22:45;;;;;;;7.87;6.40;;;;;;;19.32;80.68;94301.75;4989951;28;20196;-49
2022/12/09 11:25:24;;;;;;;12.03;6.83;;;;;;;19.49;79.64;94308.91;4993299;28;20188;-47
2022/12/09 11:27:54;;;;;;;15.40;7.07;;;;;;;19.63;78.34;94316.69;5007496;28;20513;-48
2022/12/09 11:30:22;;;;;;;13.43;8.40;;;;;;;19.54;77.19;94277.97;5000368;28;20199;-47